createdAt,value
2017-10-07T00:06:37.000Z,68.585
2017-10-07T00:16:37.000Z,68.417
2017-10-07T00:26:37.000Z,68.353
2017-10-07T00:36:37.000Z,68.499
2017-10-07T00:46:38.000Z,68.474
2017-10-07T00:56:38.000Z,68.262
2017-10-07T01:06:38.000Z,68.702
2017-10-07T01:16:38.000Z,68.407
2017-10-07T01:26:38.000Z,68.437
2017-10-07T01:36:38.000Z,68.256
2017-10-07T01:46:38.000Z,68.444
2017-10-07T01:56:38.000Z,68.578
2017-10-07T02:06:38.000Z,68.848
2017-10-07T02:16:38.000Z,68.573
2017-10-07T02:26:38.000Z,68.812
2017-10-07T02:36:38.000Z,68.488
2017-10-07T02:46:38.000Z,68.516
2017-10-07T02:56:38.000Z,68.387
2017-10-07T03:06:38.000Z,68.437
2017-10-07T03:16:38.000Z,68.509
2017-10-07T03:26:38.000Z,68.582
2017-10-07T03:36:38.000Z,68.335
2017-10-07T03:46:38.000Z,68.458
2017-10-07T03:56:38.000Z,68.404
2017-10-07T04:06:38.000Z,68.412
2017-10-07T04:16:38.000Z,68.664
2017-10-07T04:26:38.000Z,68.785
2017-10-07T04:36:38.000Z,68.648
2017-10-07T04:46:38.000Z,68.637
2017-10-07T04:56:38.000Z,68.666
2017-10-07T05:06:38.000Z,68.549
2017-10-07T05:16:38.000Z,68.715
2017-10-07T05:26:38.000Z,68.858
2017-10-07T05:36:38.000Z,68.71
2017-10-07T05:46:38.000Z,68.571
2017-10-07T05:56:38.000Z,68.694
2017-10-07T06:06:38.000Z,68.82
2017-10-07T06:16:38.000Z,68.627
2017-10-07T06:26:38.000Z,68.837
2017-10-07T06:36:38.000Z,68.477
2017-10-07T06:46:38.000Z,68.276
2017-10-07T06:56:38.000Z,68.128
2017-10-07T07:06:38.000Z,68.094
2017-10-07T07:16:38.000Z,67.915
2017-10-07T07:26:38.000Z,67.68
2017-10-07T07:36:38.000Z,67.792
2017-10-07T07:46:38.000Z,67.738
2017-10-07T07:56:38.000Z,67.895
2017-10-07T08:06:38.000Z,67.39
2017-10-07T08:16:38.000Z,66.65
2017-10-07T08:26:38.000Z,66.6
2017-10-07T08:36:38.000Z,66.197
2017-10-07T08:46:39.000Z,65.953
2017-10-07T08:56:39.000Z,65.856
2017-10-07T09:06:39.000Z,65.799
2017-10-07T09:16:39.000Z,66.321
2017-10-07T09:26:39.000Z,65.806
2017-10-07T09:36:39.000Z,65.866
2017-10-07T09:46:39.000Z,65.93
2017-10-07T09:56:39.000Z,67.094
2017-10-07T10:06:39.000Z,67.396
2017-10-07T10:16:39.000Z,67.5
2017-10-07T10:26:39.000Z,67.54
2017-10-07T10:36:39.000Z,67.601
2017-10-07T10:46:39.000Z,67.609
2017-10-07T10:56:39.000Z,67.69
2017-10-07T11:06:39.000Z,67.698
2017-10-07T11:16:39.000Z,67.779
2017-10-07T11:26:39.000Z,67.641
2017-10-07T11:36:39.000Z,67.744
2017-10-07T11:46:40.000Z,67.772
2017-10-07T11:56:39.000Z,67.811
2017-10-07T12:06:39.000Z,67.714
2017-10-07T12:16:39.000Z,67.755
2017-10-07T12:26:39.000Z,67.731
2017-10-07T12:36:39.000Z,66.791
2017-10-07T12:46:39.000Z,66.291
2017-10-07T12:56:39.000Z,66.216
2017-10-07T13:06:39.000Z,66.394
2017-10-07T13:16:39.000Z,67.248
2017-10-07T13:26:39.000Z,67.617
2017-10-07T13:36:39.000Z,67.929
2017-10-07T13:46:39.000Z,68.038
2017-10-07T13:56:39.000Z,68.133
2017-10-07T16:46:40.000Z,68.318
2017-10-07T16:56:40.000Z,68.685
2017-10-07T17:06:40.000Z,68.74
2017-10-07T17:16:40.000Z,68.822
2017-10-07T17:26:40.000Z,68.871
2017-10-07T17:36:40.000Z,68.851
2017-10-07T17:46:40.000Z,68.862
2017-10-07T17:56:40.000Z,68.779
2017-10-07T18:06:40.000Z,68.704
2017-10-07T18:16:40.000Z,68.735
2017-10-07T18:26:40.000Z,69.184
2017-10-07T18:36:40.000Z,68.854
2017-10-07T18:46:40.000Z,68.369
2017-10-07T18:56:40.000Z,68.424
2017-10-07T19:06:40.000Z,67.809
2017-10-07T19:16:41.000Z,68.554
2017-10-07T19:26:40.000Z,68.424
2017-10-07T19:36:40.000Z,68.438
2017-10-07T19:46:40.000Z,68.45
2017-10-07T19:56:40.000Z,68.411
2017-10-07T20:06:40.000Z,68.238
2017-10-07T20:16:40.000Z,68.119
2017-10-07T20:26:40.000Z,67.966
2017-10-07T20:36:40.000Z,67.848
2017-10-07T20:46:40.000Z,68.317
2017-10-07T20:56:40.000Z,68.007
2017-10-07T21:06:40.000Z,67.856
2017-10-07T21:16:40.000Z,67.53
2017-10-07T21:26:40.000Z,67.581
2017-10-07T21:36:40.000Z,67.134
2017-10-07T21:46:40.000Z,67.018
2017-10-07T21:56:40.000Z,66.359
2017-10-07T22:06:40.000Z,65.879
2017-10-07T22:16:40.000Z,65.746
2017-10-07T22:26:40.000Z,65.846
2017-10-07T22:36:40.000Z,65.579
2017-10-07T22:46:40.000Z,66.039
2017-10-07T22:56:40.000Z,65.888
2017-10-07T23:06:40.000Z,65.864
2017-10-07T23:16:40.000Z,65.872
2017-10-07T23:26:40.000Z,65.931
2017-10-07T23:36:40.000Z,65.738
2017-10-07T23:46:40.000Z,65.967
2017-10-07T23:56:40.000Z,65.955
